Time;durP1;ratioP1;P1;durP2;ratioP2;P2;SDS_P1;SDS_P2;PMS_P1;PMS_P2;Temp;Humidity;BMP_temperature;BMP_pressure;BME280_temperature;BME280_humidity;BME280_pressure;Samples;Min_cycle;Max_cycle;Signal;HPM_P1;HPM_P2
2021/11/29 00:00:14;;;;;;;2.53;0.93;;;6.40;90.70;;;;;;4973906;28;20054;-68
2021/11/29 00:02:41;;;;;;;1.27;0.80;;;6.30;90.60;;;;;;4977434;28;20121;-67
2021/11/29 00:05:08;;;;;;;1.10;0.73;;;6.40;90.50;;;;;;4977412;28;20029;-67
2021/11/29 00:07:33;;;;;;;1.40;0.70;;;6.40;90.40;;;;;;4977762;28;20042;-68
2021/11/29 00:09:59;;;;;;;2.43;0.70;;;6.40;90.30;;;;;;4977479;28;20047;-67
2021/11/29 00:12:25;;;;;;;1.60;0.53;;;6.40;90.10;;;;;;4977687;28;20023;-68
2021/11/29 00:14:51;;;;;;;4.00;1.43;;;6.30;90.00;;;;;;4977408;28;20105;-68
2021/11/29 00:17:17;;;;;;;2.63;0.50;;;6.30;90.10;;;;;;4960369;28;20030;-68
2021/11/29 00:19:42;;;;;;;0.60;0.50;;;6.30;90.10;;;;;;4977318;28;20035;-68
2021/11/29 00:22:08;;;;;;;0.70;0.50;;;6.30;90.20;;;;;;4977475;28;20022;-68
2021/11/29 00:24:34;;;;;;;1.07;0.70;;;6.30;90.20;;;;;;4977320;28;20480;-68
2021/11/29 00:27:00;;;;;;;2.57;0.90;;;6.20;90.20;;;;;;4977201;28;20027;-67
2021/11/29 00:29:26;;;;;;;1.23;0.87;;;6.20;90.00;;;;;;4977074;28;20034;-68
2021/11/29 00:31:51;;;;;;;2.50;0.93;;;6.20;90.10;;;;;;4977373;28;20026;-68
2021/11/29 00:34:17;;;;;;;2.10;0.70;;;6.20;90.10;;;;;;4977240;28;20388;-68
2021/11/29 00:36:43;;;;;;;1.10;0.70;;;6.20;90.10;;;;;;4976942;28;20042;-67
2021/11/29 00:39:09;;;;;;;1.60;0.90;;;6.10;90.20;;;;;;4976823;28;20138;-67
2021/11/29 00:41:34;;;;;;;1.53;0.83;;;6.20;90.30;;;;;;4977035;28;20027;-68
2021/11/29 00:44:00;;;;;;;1.03;0.60;;;6.20;90.30;;;;;;4977055;28;20069;-68
2021/11/29 00:46:26;;;;;;;1.63;0.80;;;6.20;90.40;;;;;;4977054;28;20105;-68
2021/11/29 00:48:52;;;;;;;1.70;0.50;;;6.20;90.40;;;;;;4976705;28;20034;-68
2021/11/29 00:51:17;;;;;;;2.83;0.50;;;6.20;90.50;;;;;;4977002;28;20038;-68
2021/11/29 00:53:43;;;;;;;1.83;0.70;;;6.20;90.60;;;;;;4977031;28;20392;-68
2021/11/29 00:56:09;;;;;;;0.90;0.70;;;6.20;90.60;;;;;;4976647;28;20042;-68
2021/11/29 00:58:35;;;;;;;1.27;0.50;;;6.20;90.70;;;;;;4976867;28;20035;-68
2021/11/29 01:01:01;;;;;;;0.93;0.40;;;6.20;90.60;;;;;;4976547;28;20062;-68
2021/11/29 01:03:26;;;;;;;1.43;0.53;;;6.20;90.60;;;;;;4976442;28;20102;-68
2021/11/29 01:05:52;;;;;;;0.73;0.50;;;6.20;90.50;;;;;;4958921;28;20093;-69
2021/11/29 01:08:18;;;;;;;0.97;0.50;;;6.20;90.50;;;;;;4976658;28;20034;-68
2021/11/29 01:10:44;;;;;;;0.97;0.80;;;6.20;90.60;;;;;;4976349;28;20122;-68
2021/11/29 01:13:10;;;;;;;0.47;0.30;;;6.20;90.80;;;;;;4975917;28;20539;-68
2021/11/29 01:15:37;;;;;;;0.63;0.50;;;6.20;90.70;;;;;;4976667;28;20457;-68
2021/11/29 01:18:08;;;;;;;0.80;0.60;;;6.20;90.60;;;;;;4976465;28;20382;-68
2021/11/29 01:20:35;;;;;;;0.57;0.40;;;6.20;90.40;;;;;;4976285;28;20027;-68
2021/11/29 01:23:02;;;;;;;2.73;0.70;;;6.20;90.50;;;;;;4976356;28;20107;-69
2021/11/29 01:25:27;;;;;;;0.83;0.53;;;6.20;90.50;;;;;;4976447;28;20054;-69
2021/11/29 01:27:53;;;;;;;0.73;0.40;;;6.20;90.70;;;;;;4976100;28;20067;-68
2021/11/29 01:30:19;;;;;;;1.83;0.53;;;6.20;90.80;;;;;;4976002;28;20039;-68
2021/11/29 01:32:44;;;;;;;2.77;0.70;;;6.20;90.80;;;;;;4976030;28;20023;-68
2021/11/29 01:35:10;;;;;;;2.43;0.63;;;6.20;90.90;;;;;;4975898;28;20041;-69
2021/11/29 01:37:36;;;;;;;1.60;0.80;;;6.20;90.90;;;;;;4976073;28;20392;-68
2021/11/29 01:40:04;;;;;;;1.77;0.80;;;6.20;90.80;;;;;;4975938;28;20034;-68
2021/11/29 01:42:30;;;;;;;2.23;1.50;;;6.20;90.80;;;;;;4975930;28;20439;-68
2021/11/29 01:44:57;;;;;;;2.10;1.30;;;6.20;90.90;;;;;;4975777;28;20023;-68
2021/11/29 01:47:23;;;;;;;1.93;1.20;;;6.20;91.00;;;;;;4975804;28;20106;-68
2021/11/29 01:49:49;;;;;;;0.50;0.27;;;6.20;90.80;;;;;;4975666;28;20047;-69
2021/11/29 01:52:15;;;;;;;0.67;0.30;;;6.20;90.60;;;;;;4975682;28;20795;-68
2021/11/29 01:54:41;;;;;;;1.53;0.40;;;6.10;90.10;;;;;;4975437;28;20479;-69
2021/11/29 01:57:07;;;;;;;0.57;0.30;;;6.10;89.00;;;;;;4975660;28;20030;-68
2021/11/29 01:59:33;;;;;;;1.40;0.50;;;6.10;87.80;;;;;;4972443;28;20039;-68
2021/11/29 02:02:00;;;;;;;0.37;0.37;;;6.10;87.10;;;;;;4973223;28;20045;-68
2021/11/29 02:04:26;;;;;;;2.07;0.67;;;6.10;87.20;;;;;;4973722;28;20387;-68
2021/11/29 02:06:52;;;;;;;0.80;0.60;;;6.10;86.50;;;;;;4975092;28;20383;-68
2021/11/29 02:09:18;;;;;;;1.80;1.20;;;6.10;86.80;;;;;;4975074;28;20034;-68
2021/11/29 02:11:44;;;;;;;1.50;0.83;;;6.10;87.50;;;;;;4975530;28;20034;-68
2021/11/29 02:14:10;;;;;;;1.43;0.83;;;6.10;88.30;;;;;;4975071;28;20023;-68
2021/11/29 02:16:36;;;;;;;1.00;0.70;;;6.00;88.50;;;;;;4975177;28;20053;-68
2021/11/29 02:19:04;;;;;;;1.13;0.70;;;6.00;88.20;;;;;;4975333;28;20491;-68
2021/11/29 02:21:31;;;;;;;1.60;0.70;;;6.10;88.30;;;;;;4974763;28;20383;-68
2021/11/29 02:24:03;;;;;;;1.17;0.70;;;6.00;88.50;;;;;;4974613;28;20058;-68
2021/11/29 02:26:35;;;;;;;4.68;1.10;;;6.00;88.40;;;;;;4974526;28;20099;-68
2021/11/29 02:29:16;;;;;;;2.40;0.73;;;6.00;88.40;;;;;;4974630;28;20031;-68
2021/11/29 02:31:47;;;;;;;1.23;0.87;;;5.90;88.50;;;;;;4975187;28;20092;-68
2021/11/29 02:34:19;;;;;;;1.00;0.53;;;5.90;89.00;;;;;;4975148;28;20069;-68
2021/11/29 02:36:46;;;;;;;2.20;1.05;;;5.80;88.80;;;;;;4974539;28;20034;-68
2021/11/29 02:39:13;;;;;;;2.73;0.77;;;5.80;89.30;;;;;;4975022;28;20034;-68
2021/11/29 02:41:40;;;;;;;2.13;0.60;;;5.70;89.70;;;;;;4974809;28;20034;-68
2021/11/29 02:44:06;;;;;;;0.57;0.23;;;5.70;89.80;;;;;;4974636;28;20105;-68
2021/11/29 02:46:32;;;;;;;0.60;0.40;;;5.70;89.30;;;;;;4974828;28;20019;-68
2021/11/29 02:49:00;;;;;;;0.20;0.20;;;5.70;88.70;;;;;;4974630;28;20031;-68
2021/11/29 02:51:30;;;;;;;0.97;0.40;;;5.60;88.50;;;;;;4974457;28;20027;-68
2021/11/29 02:54:08;;;;;;;0.50;0.30;;;5.60;88.40;;;;;;4974662;28;20026;-68
2021/11/29 02:56:38;;;;;;;0.80;0.30;;;5.60;88.10;;;;;;4974712;28;20041;-68
2021/11/29 02:59:16;;;;;;;0.83;0.40;;;5.60;88.50;;;;;;4974398;28;20029;-68
2021/11/29 03:01:44;;;;;;;0.93;0.30;;;5.60;88.40;;;;;;4974282;28;20514;-68
2021/11/29 03:04:09;;;;;;;3.57;0.30;;;5.50;88.50;;;;;;4974670;28;20097;-68
2021/11/29 03:06:35;;;;;;;0.10;0.10;;;5.40;88.80;;;;;;4974160;28;20085;-68
2021/11/29 03:09:04;;;;;;;0.93;0.30;;;5.30;89.20;;;;;;4974469;28;20106;-68
2021/11/29 03:11:30;;;;;;;1.00;0.30;;;5.30;89.50;;;;;;4974329;28;20041;-69
2021/11/29 03:13:56;;;;;;;1.00;0.73;;;5.20;89.00;;;;;;4974309;28;20054;-68
2021/11/29 03:16:22;;;;;;;0.60;0.40;;;5.20;89.60;;;;;;4974537;28;20118;-68
2021/11/29 03:18:48;;;;;;;0.77;0.50;;;5.10;89.60;;;;;;4974435;28;20167;-68
2021/11/29 03:21:18;;;;;;;0.70;0.30;;;5.10;89.70;;;;;;4974340;28;20038;-68
2021/11/29 03:23:45;;;;;;;0.60;0.40;;;5.10;89.70;;;;;;4974342;28;20030;-68
2021/11/29 03:26:15;;;;;;;1.40;0.47;;;5.00;90.00;;;;;;4974236;28;20030;-68
2021/11/29 03:28:42;;;;;;;0.77;0.30;;;5.10;89.70;;;;;;4974105;28;20027;-68
2021/11/29 03:31:09;;;;;;;1.03;0.30;;;5.00;89.70;;;;;;4974111;28;20061;-68
2021/11/29 03:33:36;;;;;;;2.03;0.37;;;5.10;89.80;;;;;;4974444;28;20031;-68
2021/11/29 03:36:03;;;;;;;0.40;0.30;;;5.00;89.60;;;;;;4975208;28;20026;-68
2021/11/29 03:38:29;;;;;;;0.80;0.20;;;5.00;89.70;;;;;;4978044;28;20476;-68
2021/11/29 03:40:56;;;;;;;0.20;0.20;;;5.10;89.60;;;;;;4978033;28;20030;-68
2021/11/29 03:43:22;;;;;;;0.30;0.20;;;5.00;89.40;;;;;;4978013;28;20031;-68
2021/11/29 03:45:47;;;;;;;0.43;0.20;;;5.10;89.30;;;;;;4978241;28;20484;-68
2021/11/29 03:48:13;;;;;;;0.57;0.20;;;5.10;88.90;;;;;;4978042;28;20031;-68
2021/11/29 03:50:39;;;;;;;0.60;0.20;;;5.10;89.00;;;;;;4977847;28;20035;-68
2021/11/29 03:53:05;;;;;;;0.20;0.10;;;5.10;89.10;;;;;;4977558;28;20031;-68
2021/11/29 03:55:30;;;;;;;0.10;0.10;;;5.00;89.30;;;;;;4977970;28;20030;-68
2021/11/29 03:57:56;;;;;;;0.30;0.10;;;5.00;89.20;;;;;;4978112;28;20580;-68
2021/11/29 04:00:22;;;;;;;0.83;0.20;;;5.00;89.60;;;;;;4977687;28;20388;-68
2021/11/29 04:02:48;;;;;;;0.30;0.10;;;4.90;89.60;;;;;;4977931;28;20126;-68
2021/11/29 04:05:14;;;;;;;0.20;0.00;;;4.90;89.70;;;;;;4977755;28;20464;-68
2021/11/29 04:07:40;;;;;;;0.40;0.20;;;4.90;90.00;;;;;;4977889;28;20468;-68
2021/11/29 04:10:07;;;;;;;0.10;0.10;;;4.90;90.10;;;;;;4977317;28;20031;-68
2021/11/29 04:12:32;;;;;;;0.40;0.10;;;4.90;90.00;;;;;;4977541;28;20082;-68
2021/11/29 04:14:58;;;;;;;0.10;0.10;;;5.00;89.50;;;;;;4977523;28;20030;-68
2021/11/29 04:17:24;;;;;;;0.40;0.20;;;5.00;89.70;;;;;;4977734;28;20029;-68
2021/11/29 04:19:50;;;;;;;0.37;0.10;;;5.00;90.00;;;;;;4977307;28;20424;-68
2021/11/29 04:22:15;;;;;;;0.50;0.30;;;5.00;90.00;;;;;;4977386;28;20487;-68
2021/11/29 04:24:42;;;;;;;0.30;0.20;;;5.00;90.00;;;;;;4977459;28;20035;-68
2021/11/29 04:27:08;;;;;;;0.30;0.20;;;5.00;90.10;;;;;;4977244;28;20094;-68
2021/11/29 04:29:39;;;;;;;0.30;0.17;;;5.00;90.00;;;;;;4977334;28;20176;-68
2021/11/29 04:32:05;;;;;;;0.20;0.10;;;5.10;89.80;;;;;;4977054;28;20027;-68
2021/11/29 04:34:31;;;;;;;0.27;0.17;;;5.10;88.50;;;;;;4976934;28;20063;-68
2021/11/29 04:36:57;;;;;;;0.17;0.10;;;5.10;88.30;;;;;;4977296;28;20058;-68
2021/11/29 04:39:23;;;;;;;0.03;0.03;;;5.20;88.00;;;;;;4977549;28;20027;-68
2021/11/29 04:41:49;;;;;;;0.33;0.30;;;5.20;87.00;;;;;;4976982;28;20388;-68
2021/11/29 04:44:15;;;;;;;0.30;0.10;;;5.30;85.10;;;;;;4976998;28;20022;-68
2021/11/29 04:46:42;;;;;;;0.10;0.10;;;5.30;84.00;;;;;;4976872;28;20019;-69
2021/11/29 04:49:07;;;;;;;0.17;0.13;;;5.40;83.10;;;;;;4958418;28;20031;-68
2021/11/29 04:51:34;;;;;;;0.40;0.17;;;5.40;83.30;;;;;;4976727;28;20030;-68
2021/11/29 04:54:00;;;;;;;1.13;0.20;;;5.40;82.50;;;;;;4976501;28;20181;-68
2021/11/29 04:56:26;;;;;;;0.33;0.13;;;5.50;83.10;;;;;;4976730;28;20027;-68
2021/11/29 04:58:52;;;;;;;0.00;0.00;;;5.40;82.10;;;;;;4976707;28;20503;-68
2021/11/29 05:01:18;;;;;;;0.00;0.00;;;5.50;83.20;;;;;;4976586;28;20051;-68
2021/11/29 05:03:44;;;;;;;0.27;0.10;;;5.50;81.00;;;;;;4976544;28;20031;-68
2021/11/29 05:06:10;;;;;;;0.47;0.10;;;5.50;81.00;;;;;;4976651;28;20106;-68
2021/11/29 05:08:35;;;;;;;0.10;0.10;;;5.50;82.00;;;;;;4976784;28;20042;-68
2021/11/29 05:11:03;;;;;;;1.80;0.10;;;5.50;82.30;;;;;;4976603;28;20038;-68
2021/11/29 05:13:29;;;;;;;0.63;0.10;;;5.50;78.90;;;;;;4976959;28;20023;-68
2021/11/29 05:15:55;;;;;;;1.97;0.10;;;5.50;79.90;;;;;;4976640;28;20399;-68
2021/11/29 05:18:21;;;;;;;0.20;0.10;;;5.50;81.30;;;;;;4976440;28;20022;-68
2021/11/29 05:20:47;;;;;;;0.53;0.30;;;5.60;81.50;;;;;;4976172;28;20085;-68
2021/11/29 05:23:13;;;;;;;0.13;0.13;;;5.60;81.50;;;;;;4976447;28;20027;-68
2021/11/29 05:25:39;;;;;;;0.27;0.10;;;5.60;82.50;;;;;;4976266;28;20379;-68
2021/11/29 05:28:06;;;;;;;0.67;0.20;;;5.60;82.80;;;;;;4976343;28;20053;-68
2021/11/29 05:30:31;;;;;;;0.90;0.30;;;5.60;82.50;;;;;;4975762;28;20110;-68
2021/11/29 05:32:57;;;;;;;0.90;0.40;;;5.60;83.50;;;;;;4976212;28;20117;-68
2021/11/29 05:35:24;;;;;;;0.30;0.30;;;5.60;83.20;;;;;;4976285;28;20038;-68
2021/11/29 05:37:49;;;;;;;0.90;0.40;;;5.60;84.40;;;;;;4976076;28;20038;-68
2021/11/29 05:40:15;;;;;;;0.80;0.47;;;5.50;84.00;;;;;;4976114;28;20031;-68
2021/11/29 05:42:41;;;;;;;1.27;0.73;;;5.50;83.90;;;;;;4975769;28;20105;-68
2021/11/29 05:45:08;;;;;;;2.30;1.00;;;5.60;82.80;;;;;;4976184;28;20150;-68
2021/11/29 05:47:35;;;;;;;1.53;0.90;;;5.50;83.90;;;;;;4975875;28;20031;-69
2021/11/29 05:50:01;;;;;;;1.77;0.83;;;5.50;85.60;;;;;;4975768;28;20110;-68
2021/11/29 05:52:27;;;;;;;1.87;0.63;;;5.50;86.00;;;;;;4975929;28;20411;-68
2021/11/29 05:54:53;;;;;;;0.60;0.40;;;5.50;86.30;;;;;;4975622;28;20037;-68
2021/11/29 05:57:18;;;;;;;0.83;0.50;;;5.50;86.20;;;;;;4975740;28;20023;-68
2021/11/29 05:59:45;;;;;;;1.03;0.30;;;5.50;86.50;;;;;;4975671;28;20023;-68
2021/11/29 06:02:11;;;;;;;1.00;0.50;;;5.50;86.60;;;;;;4975818;28;20043;-68
2021/11/29 06:04:37;;;;;;;0.50;0.40;;;5.50;87.20;;;;;;4975599;28;20077;-68
2021/11/29 06:07:03;;;;;;;0.53;0.50;;;5.50;86.60;;;;;;4975610;28;20103;-68
2021/11/29 06:09:29;;;;;;;0.43;0.27;;;5.50;86.60;;;;;;4975476;28;20027;-68
2021/11/29 06:11:55;;;;;;;0.23;0.20;;;5.50;86.50;;;;;;4975226;28;20038;-68
2021/11/29 06:14:20;;;;;;;0.10;0.10;;;5.50;86.90;;;;;;4975001;28;20077;-68
2021/11/29 06:16:46;;;;;;;0.20;0.20;;;5.50;86.60;;;;;;4974929;28;20096;-68
2021/11/29 06:19:12;;;;;;;0.60;0.20;;;5.50;85.90;;;;;;4974890;28;20069;-68
2021/11/29 06:21:38;;;;;;;0.83;0.37;;;5.50;86.20;;;;;;4957664;28;20489;-69
2021/11/29 06:24:04;;;;;;;0.83;0.30;;;5.50;85.40;;;;;;4975229;28;20105;-68
2021/11/29 06:26:30;;;;;;;0.53;0.20;;;5.50;85.00;;;;;;4975426;28;20034;-68
2021/11/29 06:28:55;;;;;;;0.47;0.30;;;5.50;84.80;;;;;;4974952;28;20174;-69
2021/11/29 06:31:21;;;;;;;0.47;0.30;;;5.50;84.90;;;;;;4975090;28;20035;-68
2021/11/29 06:33:47;;;;;;;0.20;0.20;;;5.50;84.90;;;;;;4974776;28;20027;-68
2021/11/29 06:36:13;;;;;;;0.60;0.30;;;5.60;86.00;;;;;;4974979;28;20047;-68
2021/11/29 06:38:39;;;;;;;0.33;0.20;;;5.60;85.40;;;;;;4974724;28;20031;-68
2021/11/29 06:41:05;;;;;;;0.43;0.30;;;5.60;85.90;;;;;;4974878;28;20031;-68
2021/11/29 06:43:31;;;;;;;0.50;0.27;;;5.50;86.50;;;;;;4974939;28;20383;-68
2021/11/29 06:45:56;;;;;;;2.50;0.40;;;5.50;86.10;;;;;;4974599;28;20030;-69
2021/11/29 06:48:23;;;;;;;0.77;0.30;;;5.50;86.40;;;;;;4974744;28;20018;-68
2021/11/29 06:50:51;;;;;;;1.00;0.40;;;5.50;86.80;;;;;;4973970;28;20500;-68
2021/11/29 06:53:16;;;;;;;0.77;0.33;;;5.50;87.00;;;;;;4974323;28;20498;-68
2021/11/29 06:55:45;;;;;;;0.77;0.40;;;5.50;87.30;;;;;;4973493;28;20054;-67
2021/11/29 06:58:11;;;;;;;0.87;0.50;;;5.50;87.40;;;;;;4974614;28;20085;-67
2021/11/29 07:00:37;;;;;;;1.37;0.80;;;5.50;86.80;;;;;;4974360;28;20412;-67
2021/11/29 07:03:02;;;;;;;1.57;0.70;;;5.50;86.80;;;;;;4974267;28;20023;-67
2021/11/29 07:05:29;;;;;;;1.00;0.80;;;5.50;87.50;;;;;;4974437;28;20080;-67
2021/11/29 07:07:56;;;;;;;1.07;0.60;;;5.50;87.90;;;;;;4974035;28;20023;-67
2021/11/29 07:10:24;;;;;;;3.37;1.23;;;5.50;88.10;;;;;;4973101;28;20065;-67
2021/11/29 07:12:52;;;;;;;2.40;1.47;;;5.50;87.50;;;;;;4974199;28;20015;-67
2021/11/29 07:15:17;;;;;;;3.87;2.00;;;5.50;87.30;;;;;;4974131;28;20399;-67
2021/11/29 07:17:43;;;;;;;5.43;1.90;;;5.50;87.50;;;;;;4974361;28;20027;-67
2021/11/29 07:20:09;;;;;;;3.13;1.93;;;5.50;87.90;;;;;;4973813;28;20038;-67
2021/11/29 07:22:35;;;;;;;3.40;2.00;;;5.50;88.10;;;;;;4972655;28;20019;-67
2021/11/29 07:25:03;;;;;;;3.43;2.00;;;5.50;88.00;;;;;;4956815;28;20030;-67
2021/11/29 07:27:31;;;;;;;4.67;1.23;;;5.60;88.50;;;;;;4972248;28;20553;-67
2021/11/29 07:29:59;;;;;;;2.07;1.23;;;5.60;88.30;;;;;;4972913;28;20035;-67
2021/11/29 07:32:25;;;;;;;2.20;1.43;;;5.60;87.90;;;;;;4971769;28;20122;-67
2021/11/29 07:34:52;;;;;;;2.87;1.60;;;5.60;87.50;;;;;;4973847;28;20038;-67
2021/11/29 07:37:19;;;;;;;2.80;1.30;;;5.70;87.70;;;;;;4971166;28;20034;-67
2021/11/29 07:39:47;;;;;;;1.90;1.23;;;5.60;88.10;;;;;;4974110;28;20027;-67
2021/11/29 07:42:13;;;;;;;2.70;1.50;;;5.70;88.20;;;;;;4992801;28;20048;-67
2021/11/29 07:44:40;;;;;;;1.90;1.20;;;5.70;87.30;;;;;;4974036;28;20077;-67
2021/11/29 07:47:06;;;;;;;2.37;1.67;;;5.60;87.90;;;;;;4977356;28;20475;-67
2021/11/29 07:49:32;;;;;;;2.50;1.60;;;5.60;88.10;;;;;;4992749;28;20026;-68
2021/11/29 07:51:58;;;;;;;2.60;1.80;;;5.70;88.00;;;;;;4993298;28;20034;-67
2021/11/29 07:54:24;;;;;;;3.80;1.80;;;5.70;88.00;;;;;;4993318;28;20027;-67
2021/11/29 07:56:50;;;;;;;2.30;1.30;;;5.70;88.60;;;;;;4992907;28;20489;-67
2021/11/29 07:59:18;;;;;;;4.10;1.50;;;5.80;88.00;;;;;;4992845;28;20034;-67
2021/11/29 08:01:44;;;;;;;6.47;1.77;;;5.90;86.30;;;;;;4992685;28;20096;-67
2021/11/29 08:04:10;;;;;;;2.80;1.60;;;5.90;87.10;;;;;;4993099;28;20022;-68
2021/11/29 08:06:36;;;;;;;3.23;1.60;;;5.90;87.20;;;;;;4992755;28;20093;-68
2021/11/29 08:09:03;;;;;;;2.97;1.60;;;5.90;87.20;;;;;;4992689;28;20110;-67
2021/11/29 08:11:29;;;;;;;1.80;1.40;;;6.00;86.70;;;;;;4992579;28;20077;-67
2021/11/29 08:13:55;;;;;;;3.10;1.77;;;6.00;87.00;;;;;;4992883;28;20030;-67
2021/11/29 08:16:20;;;;;;;2.83;1.40;;;6.10;86.60;;;;;;4991489;28;20393;-68
2021/11/29 08:18:47;;;;;;;2.47;1.10;;;6.20;86.10;;;;;;4992954;28;20036;-67
2021/11/29 08:21:13;;;;;;;1.40;0.90;;;6.30;85.30;;;;;;4987351;28;20125;-67
2021/11/29 08:23:38;;;;;;;2.50;1.10;;;6.30;83.30;;;;;;4959238;28;20055;-67
2021/11/29 08:26:04;;;;;;;1.97;0.90;;;6.40;83.50;;;;;;4975646;28;20110;-67
2021/11/29 08:28:31;;;;;;;1.83;0.97;;;6.40;83.40;;;;;;4975486;28;20420;-67
2021/11/29 08:30:57;;;;;;;2.03;1.10;;;6.50;83.50;;;;;;4963821;28;20039;-67
2021/11/29 08:33:23;;;;;;;1.37;0.97;;;6.60;82.90;;;;;;4976800;28;20491;-67
2021/11/29 08:35:49;;;;;;;2.40;1.20;;;6.60;82.50;;;;;;4977089;28;20035;-67
2021/11/29 08:38:17;;;;;;;1.37;0.87;;;6.70;82.00;;;;;;4976884;28;20023;-67
2021/11/29 08:40:43;;;;;;;2.20;1.23;;;6.70;81.20;;;;;;4977027;28;20041;-67
2021/11/29 08:43:13;;;;;;;1.37;0.90;;;6.80;80.90;;;;;;4959280;28;20447;-70
2021/11/29 08:45:40;;;;;;;1.60;1.07;;;6.80;80.40;;;;;;4976645;28;20424;-71
2021/11/29 08:48:08;;;;;;;3.43;1.20;;;6.90;81.20;;;;;;4976131;28;20027;-71
2021/11/29 08:50:35;;;;;;;2.23;0.90;;;6.90;79.40;;;;;;4976639;28;20042;-71
2021/11/29 08:53:03;;;;;;;2.17;1.10;;;7.00;78.30;;;;;;4976259;28;20105;-71
2021/11/29 08:55:29;;;;;;;3.77;0.90;;;7.00;77.90;;;;;;4976719;28;20033;-71
2021/11/29 08:57:55;;;;;;;2.23;1.20;;;7.10;78.30;;;;;;4976652;28;20026;-72
2021/11/29 09:00:21;;;;;;;2.07;0.93;;;7.00;78.30;;;;;;4976592;28;20067;-71
2021/11/29 09:02:48;;;;;;;1.77;1.00;;;7.10;78.20;;;;;;4976207;28;20054;-72
2021/11/29 09:05:16;;;;;;;3.37;0.90;;;7.10;77.50;;;;;;4976372;28;20034;-71
2021/11/29 09:07:42;;;;;;;1.80;1.10;;;7.00;77.70;;;;;;4959090;28;20114;-71
2021/11/29 09:10:09;;;;;;;1.70;1.10;;;7.00;78.50;;;;;;4976236;28;20065;-71
2021/11/29 09:12:36;;;;;;;1.50;0.90;;;7.10;79.60;;;;;;4976577;28;20388;-71
2021/11/29 09:15:05;;;;;;;1.83;1.00;;;7.10;78.70;;;;;;4975839;28;20384;-71
2021/11/29 09:17:31;;;;;;;2.23;0.93;;;7.10;77.80;;;;;;4975875;28;20034;-71
2021/11/29 09:19:58;;;;;;;2.80;0.77;;;7.10;77.30;;;;;;4974353;28;20035;-69
2021/11/29 09:22:24;;;;;;;1.00;0.70;;;7.10;75.70;;;;;;4973692;28;20027;-73
2021/11/29 09:24:50;;;;;;;0.63;0.50;;;7.10;75.90;;;;;;4956411;28;20491;-73
2021/11/29 09:27:16;;;;;;;1.93;0.80;;;7.10;76.20;;;;;;4975394;28;20046;-67
2021/11/29 09:29:45;;;;;;;1.27;0.70;;;7.10;75.80;;;;;;4974365;28;20195;-69
2021/11/29 09:32:12;;;;;;;1.57;0.80;;;7.20;75.90;;;;;;4973343;28;20095;-70
2021/11/29 09:34:37;;;;;;;1.20;0.73;;;7.20;75.90;;;;;;4973075;28;20073;-72
2021/11/29 09:37:03;;;;;;;3.70;0.93;;;7.20;75.60;;;;;;4976185;28;20484;-74
2021/11/29 09:39:29;;;;;;;1.20;0.60;;;7.20;74.50;;;;;;4958646;28;20030;-73
2021/11/29 09:41:54;;;;;;;1.23;0.67;;;7.20;73.40;;;;;;4976012;28;20018;-73
2021/11/29 09:44:20;;;;;;;1.30;0.70;;;7.20;73.70;;;;;;4976292;28;20479;-72
2021/11/29 09:46:46;;;;;;;1.60;0.70;;;7.30;73.50;;;;;;4958557;28;20030;-74
2021/11/29 09:49:12;;;;;;;1.83;0.70;;;7.40;73.60;;;;;;4975925;28;20469;-72
2021/11/29 09:51:38;;;;;;;3.87;0.50;;;7.40;73.00;;;;;;4975757;28;20065;-71
2021/11/29 09:54:07;;;;;;;0.87;0.57;;;7.50;72.60;;;;;;4975637;28;20565;-71
2021/11/29 09:56:34;;;;;;;1.60;0.60;;;7.50;73.20;;;;;;4976064;28;20027;-72
2021/11/29 09:59:01;;;;;;;0.73;0.40;;;7.50;73.40;;;;;;4975762;28;20046;-71
2021/11/29 10:01:28;;;;;;;2.40;0.40;;;7.40;73.80;;;;;;4957891;28;20511;-71
2021/11/29 10:03:53;;;;;;;1.00;0.77;;;7.40;74.30;;;;;;4975552;28;20035;-73
2021/11/29 10:06:19;;;;;;;0.80;0.53;;;7.40;74.50;;;;;;4958120;28;20430;-71
2021/11/29 10:08:45;;;;;;;2.90;0.60;;;7.40;73.30;;;;;;4975440;28;20030;-73
2021/11/29 10:11:17;;;;;;;7.43;0.90;;;7.40;72.60;;;;;;4974948;28;20043;-72
2021/11/29 10:13:48;;;;;;;3.67;0.70;;;7.50;72.70;;;;;;4975303;28;20050;-72
2021/11/29 10:16:39;;;;;;;3.07;0.60;;;7.60;72.60;;;;;;4975387;28;20046;-72
2021/11/29 10:19:09;;;;;;;7.47;1.10;;;7.80;71.20;;;;;;4975202;28;20372;-72
2021/11/29 10:21:35;;;;;;;4.67;0.80;;;7.90;71.00;;;;;;4957574;28;20038;-73
2021/11/29 10:24:02;;;;;;;1.97;0.57;;;8.00;70.10;;;;;;4975163;28;20026;-73
2021/11/29 10:26:36;;;;;;;0.50;0.40;;;8.10;68.80;;;;;;4975272;28;20062;-72
2021/11/29 10:29:08;;;;;;;1.10;0.60;;;8.20;68.50;;;;;;4975379;28;20042;-74
2021/11/29 10:31:40;;;;;;;1.40;0.63;;;8.30;66.90;;;;;;4975058;28;20117;-71
2021/11/29 10:34:07;;;;;;;1.53;0.50;;;8.40;67.00;;;;;;4974831;28;20471;-71
2021/11/29 10:36:40;;;;;;;1.87;0.70;;;8.50;66.80;;;;;;4974893;28;20424;-72
2021/11/29 10:39:32;;;;;;;1.10;0.40;;;8.60;66.00;;;;;;4975033;28;20102;-73
2021/11/29 10:42:00;;;;;;;0.50;0.30;;;8.70;64.80;;;;;;4961913;28;20108;-71
2021/11/29 10:44:35;;;;;;;0.70;0.40;;;8.80;64.10;;;;;;4957422;28;20431;-73
2021/11/29 10:47:05;;;;;;;0.97;0.60;;;8.90;63.30;;;;;;4973967;28;20027;-73
2021/11/29 10:49:39;;;;;;;0.73;0.47;;;9.00;62.90;;;;;;4974882;28;20033;-73
2021/11/29 10:52:07;;;;;;;0.93;0.50;;;9.10;62.80;;;;;;4974481;28;20043;-72
2021/11/29 10:54:35;;;;;;;0.87;0.40;;;9.10;61.60;;;;;;4974852;28;20478;-72
2021/11/29 10:57:02;;;;;;;0.77;0.43;;;9.20;60.50;;;;;;4974749;28;20037;-72
2021/11/29 10:59:31;;;;;;;1.03;0.50;;;9.20;59.80;;;;;;4974887;28;20023;-72
2021/11/29 11:02:02;;;;;;;0.90;0.50;;;9.20;60.30;;;;;;4974882;28;20500;-71
2021/11/29 11:04:31;;;;;;;1.30;0.50;;;9.30;59.10;;;;;;4974676;28;20365;-72
2021/11/29 11:07:03;;;;;;;1.20;0.30;;;9.30;59.20;;;;;;4974526;28;20030;-72
2021/11/29 11:09:35;;;;;;;1.33;0.50;;;9.30;59.90;;;;;;4974572;28;20026;-72
2021/11/29 11:12:13;;;;;;;0.93;0.47;;;9.40;59.90;;;;;;4974445;28;20054;-73
2021/11/29 11:14:52;;;;;;;0.87;0.50;;;9.40;59.70;;;;;;4974466;28;20026;-71
2021/11/29 11:17:19;;;;;;;2.43;0.70;;;9.50;58.10;;;;;;4974433;28;20062;-72
2021/11/29 11:19:54;;;;;;;0.77;0.50;;;9.60;59.10;;;;;;4974686;28;20030;-73
2021/11/29 11:22:28;;;;;;;0.40;0.40;;;9.60;58.20;;;;;;4974296;28;20019;-72
2021/11/29 11:25:03;;;;;;;0.83;0.50;;;9.60;58.00;;;;;;4974285;28;20054;-72
2021/11/29 11:27:33;;;;;;;1.30;0.70;;;9.60;57.50;;;;;;4974517;28;20026;-72
2021/11/29 11:30:04;;;;;;;0.70;0.60;;;9.70;58.40;;;;;;4974198;28;20373;-73
2021/11/29 11:32:33;;;;;;;1.03;0.80;;;9.60;56.40;;;;;;4974209;28;20035;-73
2021/11/29 11:35:05;;;;;;;0.93;0.50;;;9.70;57.70;;;;;;4974088;28;20022;-71
2021/11/29 11:37:36;;;;;;;1.00;0.60;;;9.70;56.60;;;;;;4974286;28;20035;-72
2021/11/29 11:40:05;;;;;;;0.40;0.40;;;9.80;56.30;;;;;;4973741;28;20395;-73
2021/11/29 11:42:31;;;;;;;0.87;0.50;;;9.80;55.90;;;;;;4974256;28;20102;-73
2021/11/29 11:44:57;;;;;;;2.30;0.50;;;9.80;56.70;;;;;;4974456;28;20097;-73
2021/11/29 11:47:26;;;;;;;1.40;0.70;;;9.90;56.30;;;;;;4974216;28;20046;-73
2021/11/29 11:49:53;;;;;;;1.00;0.77;;;9.90;56.00;;;;;;4973886;28;20035;-73
2021/11/29 11:52:20;;;;;;;1.37;0.77;;;9.90;56.70;;;;;;4974018;28;20057;-72
2021/11/29 11:54:48;;;;;;;1.37;0.80;;;9.90;57.20;;;;;;4974016;28;20031;-73
2021/11/29 11:57:23;;;;;;;0.67;0.53;;;9.90;56.10;;;;;;4975497;28;20046;-73
2021/11/29 11:59:54;;;;;;;0.83;0.60;;;9.90;56.20;;;;;;4978020;28;20435;-72
2021/11/29 12:02:25;;;;;;;1.13;0.73;;;9.90;56.00;;;;;;4960618;28;20035;-72
2021/11/29 12:05:17;;;;;;;1.37;0.60;;;9.90;54.70;;;;;;4977805;28;20027;-73
2021/11/29 12:07:45;;;;;;;1.17;0.70;;;9.90;55.10;;;;;;4960356;28;20033;-72
2021/11/29 12:10:33;;;;;;;0.70;0.50;;;9.80;56.10;;;;;;4977520;28;20041;-72
2021/11/29 12:13:04;;;;;;;1.60;0.90;;;9.90;55.80;;;;;;4977207;28;20041;-73
2021/11/29 12:15:41;;;;;;;1.67;0.87;;;9.90;56.10;;;;;;4977533;28;20495;-73
2021/11/29 12:18:10;;;;;;;1.20;0.83;;;9.90;55.10;;;;;;4977604;28;20085;-72
2021/11/29 12:20:37;;;;;;;1.10;0.63;;;9.90;54.00;;;;;;4977234;28;20023;-71
2021/11/29 12:23:03;;;;;;;0.70;0.60;;;9.90;54.70;;;;;;4977663;28;20034;-73
2021/11/29 12:25:31;;;;;;;2.43;0.73;;;9.90;54.60;;;;;;4977456;28;20082;-78
2021/11/29 12:28:00;;;;;;;1.00;0.60;;;9.90;54.80;;;;;;4977484;28;20471;-73
2021/11/29 12:30:45;;;;;;;0.73;0.60;;;9.80;55.20;;;;;;4977118;28;20027;-74
2021/11/29 12:33:16;;;;;;;3.70;0.70;;;9.80;55.90;;;;;;4977342;28;20018;-74
2021/11/29 12:35:44;;;;;;;1.03;0.70;;;9.90;55.30;;;;;;4977282;28;20023;-74
2021/11/29 12:38:18;;;;;;;1.30;0.60;;;9.90;56.00;;;;;;4977366;28;20026;-71
2021/11/29 12:41:07;;;;;;;1.27;0.80;;;9.90;55.40;;;;;;4977402;28;20022;-74
2021/11/29 12:44:00;;;;;;;1.03;0.50;;;9.80;54.70;;;;;;4976976;28;20023;-75
2021/11/29 12:46:29;;;;;;;0.65;0.57;;;9.80;54.00;;;;;;4972969;28;20455;-75
2021/11/29 12:49:00;;;;;;;0.60;0.50;;;9.80;53.70;;;;;;4976934;28;20110;-74
2021/11/29 12:51:53;;;;;;;1.63;0.80;;;9.80;56.00;;;;;;4976929;28;20074;-75
2021/11/29 12:54:39;;;;;;;2.47;0.73;;;9.80;55.20;;;;;;4976875;28;20050;-78
2021/11/29 12:57:17;;;;;;;2.20;0.90;;;9.80;54.80;;;;;;4976412;28;20023;-75
2021/11/29 12:59:53;;;;;;;1.10;0.60;;;9.80;54.50;;;;;;4976410;28;20038;-74